Terminal Aerodrome Forecast
Issued by NWS Grand Forks, ND

Home | Current Version | Previous Version | Text Only | Print | Product List | Glossary Off
Versions: 1 2 3 4 5 6 7 8 9 10 11 12 13 14

000
FTUS43 KFGF 131700
TAFFAR
TAF
KFAR 131728Z 1318/1418 19017G24KT P6SM SCT060 BKN200
     FM132300 22007KT P6SM BKN090
     FM140300 26007KT P6SM SCT120
     FM141500 30012KT P6SM SKC=

USA.gov is the U.S. government's official web portal to all federal, state and local government web resources and services.